sensor_id;sensor_type;location;lat;lon;timestamp;pressure;altitude;pressure_sealevel;temperature
19282;BMP180;9774;52.034;5.342;2024-02-28T00:02:07;101797.00;;;9.90
19282;BMP180;9774;52.034;5.342;2024-02-28T00:04:34;101800.00;;;10.00
19282;BMP180;9774;52.034;5.342;2024-02-28T00:07:01;101796.00;;;10.00
19282;BMP180;9774;52.034;5.342;2024-02-28T00:09:28;101799.00;;;9.90
19282;BMP180;9774;52.034;5.342;2024-02-28T00:11:55;101801.00;;;9.90
19282;BMP180;9774;52.034;5.342;2024-02-28T00:14:24;101805.00;;;9.90
19282;BMP180;9774;52.034;5.342;2024-02-28T00:16:51;101803.00;;;9.90
19282;BMP180;9774;52.034;5.342;2024-02-28T00:19:17;101795.00;;;9.90
19282;BMP180;9774;52.034;5.342;2024-02-28T00:21:46;101803.00;;;9.90
19282;BMP180;9774;52.034;5.342;2024-02-28T00:24:13;101799.00;;;9.90
19282;BMP180;9774;52.034;5.342;2024-02-28T00:26:42;101798.00;;;9.80
19282;BMP180;9774;52.034;5.342;2024-02-28T00:29:09;101798.00;;;9.80
19282;BMP180;9774;52.034;5.342;2024-02-28T00:31:38;101794.00;;;9.80
19282;BMP180;9774;52.034;5.342;2024-02-28T00:34:05;101807.00;;;9.70
19282;BMP180;9774;52.034;5.342;2024-02-28T00:36:34;101797.00;;;9.70
19282;BMP180;9774;52.034;5.342;2024-02-28T00:39:01;101799.00;;;9.70
19282;BMP180;9774;52.034;5.342;2024-02-28T00:41:29;101804.00;;;9.60
19282;BMP180;9774;52.034;5.342;2024-02-28T00:43:57;101800.00;;;9.60
19282;BMP180;9774;52.034;5.342;2024-02-28T00:46:24;101807.00;;;9.60
19282;BMP180;9774;52.034;5.342;2024-02-28T00:48:52;101798.00;;;9.50
19282;BMP180;9774;52.034;5.342;2024-02-28T00:51:19;101795.00;;;9.50
19282;BMP180;9774;52.034;5.342;2024-02-28T00:53:46;101793.00;;;9.40
19282;BMP180;9774;52.034;5.342;2024-02-28T00:56:14;101797.00;;;9.40
19282;BMP180;9774;52.034;5.342;2024-02-28T00:58:41;101787.00;;;9.30
19282;BMP180;9774;52.034;5.342;2024-02-28T01:01:11;101789.00;;;9.30
19282;BMP180;9774;52.034;5.342;2024-02-28T01:03:38;101782.00;;;9.20
19282;BMP180;9774;52.034;5.342;2024-02-28T01:06:07;101783.00;;;9.20
19282;BMP180;9774;52.034;5.342;2024-02-28T01:08:34;101789.00;;;9.20
19282;BMP180;9774;52.034;5.342;2024-02-28T01:11:01;101785.00;;;9.10
19282;BMP180;9774;52.034;5.342;2024-02-28T01:13:28;101774.00;;;9.10
19282;BMP180;9774;52.034;5.342;2024-02-28T01:15:56;101785.00;;;9.10
19282;BMP180;9774;52.034;5.342;2024-02-28T01:18:25;101777.00;;;9.00
19282;BMP180;9774;52.034;5.342;2024-02-28T01:20:54;101780.00;;;9.00
19282;BMP180;9774;52.034;5.342;2024-02-28T01:23:22;101782.00;;;8.90
19282;BMP180;9774;52.034;5.342;2024-02-28T01:25:49;101787.00;;;8.90
19282;BMP180;9774;52.034;5.342;2024-02-28T01:28:16;101780.00;;;8.90
19282;BMP180;9774;52.034;5.342;2024-02-28T01:30:44;101791.00;;;8.90
19282;BMP180;9774;52.034;5.342;2024-02-28T01:33:11;101795.00;;;8.80
19282;BMP180;9774;52.034;5.342;2024-02-28T01:35:40;101790.00;;;8.80
19282;BMP180;9774;52.034;5.342;2024-02-28T01:38:07;101787.00;;;8.90
19282;BMP180;9774;52.034;5.342;2024-02-28T01:40:35;101783.00;;;8.80
19282;BMP180;9774;52.034;5.342;2024-02-28T01:43:03;101780.00;;;8.80
19282;BMP180;9774;52.034;5.342;2024-02-28T01:45:30;101773.00;;;8.80
19282;BMP180;9774;52.034;5.342;2024-02-28T01:47:57;101781.00;;;8.80
19282;BMP180;9774;52.034;5.342;2024-02-28T01:50:40;101785.00;;;8.70
19282;BMP180;9774;52.034;5.342;2024-02-28T01:53:10;101775.00;;;8.80
19282;BMP180;9774;52.034;5.342;2024-02-28T01:55:42;101771.00;;;8.80
19282;BMP180;9774;52.034;5.342;2024-02-28T01:58:10;101770.00;;;8.80
19282;BMP180;9774;52.034;5.342;2024-02-28T02:00:37;101774.00;;;8.90
19282;BMP180;9774;52.034;5.342;2024-02-28T02:03:05;101783.00;;;8.90
19282;BMP180;9774;52.034;5.342;2024-02-28T02:05:32;101784.00;;;8.90
19282;BMP180;9774;52.034;5.342;2024-02-28T02:08:01;101780.00;;;8.90
19282;BMP180;9774;52.034;5.342;2024-02-28T02:10:28;101785.00;;;8.90
19282;BMP180;9774;52.034;5.342;2024-02-28T02:13:04;101789.00;;;8.80
19282;BMP180;9774;52.034;5.342;2024-02-28T02:15:31;101787.00;;;8.90
19282;BMP180;9774;52.034;5.342;2024-02-28T02:17:59;101785.00;;;8.90
19282;BMP180;9774;52.034;5.342;2024-02-28T02:20:30;101782.00;;;8.80
19282;BMP180;9774;52.034;5.342;2024-02-28T02:23:00;101796.00;;;8.90
19282;BMP180;9774;52.034;5.342;2024-02-28T02:25:27;101788.00;;;8.90
19282;BMP180;9774;52.034;5.342;2024-02-28T02:27:54;101794.00;;;8.80
19282;BMP180;9774;52.034;5.342;2024-02-28T02:30:22;101793.00;;;8.90
19282;BMP180;9774;52.034;5.342;2024-02-28T02:32:49;101782.00;;;8.90
19282;BMP180;9774;52.034;5.342;2024-02-28T02:35:16;101781.00;;;8.80
19282;BMP180;9774;52.034;5.342;2024-02-28T02:37:44;101783.00;;;8.80
19282;BMP180;9774;52.034;5.342;2024-02-28T02:40:15;101786.00;;;8.80
19282;BMP180;9774;52.034;5.342;2024-02-28T02:42:42;101790.00;;;8.80
19282;BMP180;9774;52.034;5.342;2024-02-28T02:45:10;101789.00;;;8.80
19282;BMP180;9774;52.034;5.342;2024-02-28T02:47:37;101792.00;;;8.80
19282;BMP180;9774;52.034;5.342;2024-02-28T02:50:05;101788.00;;;8.80
19282;BMP180;9774;52.034;5.342;2024-02-28T02:52:32;101793.00;;;8.70
19282;BMP180;9774;52.034;5.342;2024-02-28T02:54:59;101791.00;;;8.70
19282;BMP180;9774;52.034;5.342;2024-02-28T02:57:28;101791.00;;;8.70
19282;BMP180;9774;52.034;5.342;2024-02-28T02:59:56;101779.00;;;8.70
19282;BMP180;9774;52.034;5.342;2024-02-28T03:02:23;101786.00;;;8.70
19282;BMP180;9774;52.034;5.342;2024-02-28T03:04:50;101782.00;;;8.70
19282;BMP180;9774;52.034;5.342;2024-02-28T03:07:17;101780.00;;;8.60
19282;BMP180;9774;52.034;5.342;2024-02-28T03:09:45;101773.00;;;8.60
19282;BMP180;9774;52.034;5.342;2024-02-28T03:12:12;101770.00;;;8.60
19282;BMP180;9774;52.034;5.342;2024-02-28T03:14:40;101772.00;;;8.60
19282;BMP180;9774;52.034;5.342;2024-02-28T03:17:07;101770.00;;;8.50
19282;BMP180;9774;52.034;5.342;2024-02-28T03:19:34;101769.00;;;8.50
19282;BMP180;9774;52.034;5.342;2024-02-28T03:22:02;101766.00;;;8.50
19282;BMP180;9774;52.034;5.342;2024-02-28T03:24:29;101760.00;;;8.50
19282;BMP180;9774;52.034;5.342;2024-02-28T03:26:56;101763.00;;;8.40
19282;BMP180;9774;52.034;5.342;2024-02-28T03:29:23;101763.00;;;8.40
19282;BMP180;9774;52.034;5.342;2024-02-28T03:31:52;101757.00;;;8.40
19282;BMP180;9774;52.034;5.342;2024-02-28T03:34:19;101763.00;;;8.40
19282;BMP180;9774;52.034;5.342;2024-02-28T03:36:46;101762.00;;;8.40
19282;BMP180;9774;52.034;5.342;2024-02-28T03:39:13;101768.00;;;8.40
19282;BMP180;9774;52.034;5.342;2024-02-28T03:41:39;101756.00;;;8.40
19282;BMP180;9774;52.034;5.342;2024-02-28T03:44:06;101764.00;;;8.40
19282;BMP180;9774;52.034;5.342;2024-02-28T03:46:34;101761.00;;;8.50
19282;BMP180;9774;52.034;5.342;2024-02-28T03:49:02;101766.00;;;8.50
19282;BMP180;9774;52.034;5.342;2024-02-28T03:51:29;101767.00;;;8.50
19282;BMP180;9774;52.034;5.342;2024-02-28T03:53:56;101770.00;;;8.60
19282;BMP180;9774;52.034;5.342;2024-02-28T03:56:24;101762.00;;;8.60
19282;BMP180;9774;52.034;5.342;2024-02-28T03:58:51;101771.00;;;8.60
19282;BMP180;9774;52.034;5.342;2024-02-28T04:01:19;101771.00;;;8.60
19282;BMP180;9774;52.034;5.342;2024-02-28T04:03:46;101767.00;;;8.70
19282;BMP180;9774;52.034;5.342;2024-02-28T04:06:15;101769.00;;;8.70
19282;BMP180;9774;52.034;5.342;2024-02-28T04:08:42;101780.00;;;8.80
19282;BMP180;9774;52.034;5.342;2024-02-28T04:11:09;101773.00;;;8.80
19282;BMP180;9774;52.034;5.342;2024-02-28T04:13:36;101772.00;;;8.80
19282;BMP180;9774;52.034;5.342;2024-02-28T04:16:04;101776.00;;;8.90
19282;BMP180;9774;52.034;5.342;2024-02-28T04:18:31;101779.00;;;8.90
19282;BMP180;9774;52.034;5.342;2024-02-28T04:20:58;101776.00;;;8.90
19282;BMP180;9774;52.034;5.342;2024-02-28T04:23:27;101777.00;;;9.00
19282;BMP180;9774;52.034;5.342;2024-02-28T04:25:54;101783.00;;;9.00
19282;BMP180;9774;52.034;5.342;2024-02-28T04:28:21;101783.00;;;9.00
19282;BMP180;9774;52.034;5.342;2024-02-28T04:30:48;101774.00;;;9.00
19282;BMP180;9774;52.034;5.342;2024-02-28T04:33:16;101777.00;;;9.10
19282;BMP180;9774;52.034;5.342;2024-02-28T04:35:43;101782.00;;;9.10
19282;BMP180;9774;52.034;5.342;2024-02-28T04:38:11;101786.00;;;9.10
19282;BMP180;9774;52.034;5.342;2024-02-28T04:40:39;101782.00;;;9.20
19282;BMP180;9774;52.034;5.342;2024-02-28T04:43:06;101784.00;;;9.20
19282;BMP180;9774;52.034;5.342;2024-02-28T04:45:33;101784.00;;;9.20
19282;BMP180;9774;52.034;5.342;2024-02-28T04:48:01;101787.00;;;9.20
19282;BMP180;9774;52.034;5.342;2024-02-28T04:50:28;101791.00;;;9.30
19282;BMP180;9774;52.034;5.342;2024-02-28T04:52:55;101809.00;;;9.30
19282;BMP180;9774;52.034;5.342;2024-02-28T04:55:22;101806.00;;;9.30
19282;BMP180;9774;52.034;5.342;2024-02-28T04:57:51;101815.00;;;9.40
19282;BMP180;9774;52.034;5.342;2024-02-28T05:00:18;101811.00;;;9.40
19282;BMP180;9774;52.034;5.342;2024-02-28T05:02:45;101806.00;;;9.40
19282;BMP180;9774;52.034;5.342;2024-02-28T05:05:13;101815.00;;;9.50
19282;BMP180;9774;52.034;5.342;2024-02-28T05:07:40;101817.00;;;9.50
19282;BMP180;9774;52.034;5.342;2024-02-28T05:10:08;101813.00;;;9.50
19282;BMP180;9774;52.034;5.342;2024-02-28T05:12:36;101814.00;;;9.50
19282;BMP180;9774;52.034;5.342;2024-02-28T05:15:05;101805.00;;;9.50
19282;BMP180;9774;52.034;5.342;2024-02-28T05:17:33;101804.00;;;9.60
19282;BMP180;9774;52.034;5.342;2024-02-28T05:20:00;101812.00;;;9.60
19282;BMP180;9774;52.034;5.342;2024-02-28T05:22:27;101809.00;;;9.60
19282;BMP180;9774;52.034;5.342;2024-02-28T05:24:54;101802.00;;;9.60
19282;BMP180;9774;52.034;5.342;2024-02-28T05:27:21;101801.00;;;9.70
19282;BMP180;9774;52.034;5.342;2024-02-28T05:29:48;101803.00;;;9.70
19282;BMP180;9774;52.034;5.342;2024-02-28T05:32:17;101803.00;;;9.70
19282;BMP180;9774;52.034;5.342;2024-02-28T05:34:45;101802.00;;;9.70
19282;BMP180;9774;52.034;5.342;2024-02-28T05:37:13;101810.00;;;9.80
19282;BMP180;9774;52.034;5.342;2024-02-28T05:39:40;101810.00;;;9.80
19282;BMP180;9774;52.034;5.342;2024-02-28T05:42:07;101811.00;;;9.80
19282;BMP180;9774;52.034;5.342;2024-02-28T05:44:35;101806.00;;;9.80
19282;BMP180;9774;52.034;5.342;2024-02-28T05:47:02;101819.00;;;9.80
19282;BMP180;9774;52.034;5.342;2024-02-28T05:49:30;101803.00;;;9.90
19282;BMP180;9774;52.034;5.342;2024-02-28T05:51:57;101809.00;;;9.90
19282;BMP180;9774;52.034;5.342;2024-02-28T05:54:24;101807.00;;;9.90
19282;BMP180;9774;52.034;5.342;2024-02-28T05:56:51;101807.00;;;9.90
19282;BMP180;9774;52.034;5.342;2024-02-28T05:59:19;101807.00;;;10.00
19282;BMP180;9774;52.034;5.342;2024-02-28T06:01:46;101806.00;;;10.00
19282;BMP180;9774;52.034;5.342;2024-02-28T06:04:13;101808.00;;;10.00
19282;BMP180;9774;52.034;5.342;2024-02-28T06:06:42;101813.00;;;10.00
19282;BMP180;9774;52.034;5.342;2024-02-28T06:09:09;101809.00;;;10.00
19282;BMP180;9774;52.034;5.342;2024-02-28T06:11:36;101823.00;;;10.10
19282;BMP180;9774;52.034;5.342;2024-02-28T06:14:04;101817.00;;;10.10
19282;BMP180;9774;52.034;5.342;2024-02-28T06:16:31;101813.00;;;10.10
19282;BMP180;9774;52.034;5.342;2024-02-28T06:18:58;101815.00;;;10.10
19282;BMP180;9774;52.034;5.342;2024-02-28T06:21:25;101819.00;;;10.10
19282;BMP180;9774;52.034;5.342;2024-02-28T06:23:54;101825.00;;;10.20
19282;BMP180;9774;52.034;5.342;2024-02-28T06:26:22;101827.00;;;10.20
19282;BMP180;9774;52.034;5.342;2024-02-28T06:28:52;101826.00;;;10.20
19282;BMP180;9774;52.034;5.342;2024-02-28T06:31:28;101822.00;;;10.20
19282;BMP180;9774;52.034;5.342;2024-02-28T06:33:58;101820.00;;;10.20
19282;BMP180;9774;52.034;5.342;2024-02-28T06:36:26;101824.00;;;10.30
19282;BMP180;9774;52.034;5.342;2024-02-28T06:38:55;101825.00;;;10.20
19282;BMP180;9774;52.034;5.342;2024-02-28T06:41:22;101835.00;;;10.30
19282;BMP180;9774;52.034;5.342;2024-02-28T06:43:49;101839.00;;;10.30
19282;BMP180;9774;52.034;5.342;2024-02-28T06:46:16;101837.00;;;10.40
19282;BMP180;9774;52.034;5.342;2024-02-28T06:48:43;101839.00;;;10.30
19282;BMP180;9774;52.034;5.342;2024-02-28T06:51:10;101856.00;;;10.40
19282;BMP180;9774;52.034;5.342;2024-02-28T06:53:37;101853.00;;;10.40
19282;BMP180;9774;52.034;5.342;2024-02-28T06:56:06;101854.00;;;10.40
19282;BMP180;9774;52.034;5.342;2024-02-28T06:58:33;101860.00;;;10.40
19282;BMP180;9774;52.034;5.342;2024-02-28T07:01:00;101874.00;;;10.50
19282;BMP180;9774;52.034;5.342;2024-02-28T07:03:27;101876.00;;;10.50
19282;BMP180;9774;52.034;5.342;2024-02-28T07:05:55;101881.00;;;10.50
19282;BMP180;9774;52.034;5.342;2024-02-28T07:08:22;101878.00;;;10.50
19282;BMP180;9774;52.034;5.342;2024-02-28T07:10:49;101874.00;;;10.60
19282;BMP180;9774;52.034;5.342;2024-02-28T07:13:20;101882.00;;;10.60
19282;BMP180;9774;52.034;5.342;2024-02-28T07:15:48;101888.00;;;10.60
19282;BMP180;9774;52.034;5.342;2024-02-28T07:18:16;101884.00;;;10.70
19282;BMP180;9774;52.034;5.342;2024-02-28T07:20:43;101887.00;;;10.70
19282;BMP180;9774;52.034;5.342;2024-02-28T07:23:10;101887.00;;;10.80
19282;BMP180;9774;52.034;5.342;2024-02-28T07:25:37;101889.00;;;10.80
19282;BMP180;9774;52.034;5.342;2024-02-28T07:28:05;101892.00;;;10.80
19282;BMP180;9774;52.034;5.342;2024-02-28T07:30:33;101899.00;;;10.80
19282;BMP180;9774;52.034;5.342;2024-02-28T07:33:01;101899.00;;;10.80
19282;BMP180;9774;52.034;5.342;2024-02-28T07:35:28;101905.00;;;10.90
19282;BMP180;9774;52.034;5.342;2024-02-28T07:37:55;101898.00;;;10.90
19282;BMP180;9774;52.034;5.342;2024-02-28T07:40:22;101903.00;;;10.90
19282;BMP180;9774;52.034;5.342;2024-02-28T07:42:50;101907.00;;;10.90
19282;BMP180;9774;52.034;5.342;2024-02-28T07:45:17;101906.00;;;10.90
19282;BMP180;9774;52.034;5.342;2024-02-28T07:47:46;101912.00;;;11.00
19282;BMP180;9774;52.034;5.342;2024-02-28T07:50:13;101914.00;;;11.00
19282;BMP180;9774;52.034;5.342;2024-02-28T07:52:42;101917.00;;;11.00
19282;BMP180;9774;52.034;5.342;2024-02-28T07:55:09;101918.00;;;11.10
19282;BMP180;9774;52.034;5.342;2024-02-28T07:57:36;101921.00;;;11.10
19282;BMP180;9774;52.034;5.342;2024-02-28T08:00:04;101922.00;;;11.10
19282;BMP180;9774;52.034;5.342;2024-02-28T08:02:31;101925.00;;;11.10
19282;BMP180;9774;52.034;5.342;2024-02-28T08:05:00;101927.00;;;11.20
19282;BMP180;9774;52.034;5.342;2024-02-28T08:07:27;101933.00;;;11.20
19282;BMP180;9774;52.034;5.342;2024-02-28T08:09:54;101933.00;;;11.30
19282;BMP180;9774;52.034;5.342;2024-02-28T08:12:21;101935.00;;;11.30
19282;BMP180;9774;52.034;5.342;2024-02-28T08:14:49;101940.00;;;11.40
19282;BMP180;9774;52.034;5.342;2024-02-28T08:17:16;101946.00;;;11.40
19282;BMP180;9774;52.034;5.342;2024-02-28T08:19:43;101938.00;;;11.40
19282;BMP180;9774;52.034;5.342;2024-02-28T08:22:12;101946.00;;;11.40
19282;BMP180;9774;52.034;5.342;2024-02-28T08:24:39;101953.00;;;11.40
19282;BMP180;9774;52.034;5.342;2024-02-28T08:27:06;101954.00;;;11.50
19282;BMP180;9774;52.034;5.342;2024-02-28T08:29:33;101951.00;;;11.50
19282;BMP180;9774;52.034;5.342;2024-02-28T08:32:01;101956.00;;;11.60
19282;BMP180;9774;52.034;5.342;2024-02-28T08:34:29;101962.00;;;11.60
19282;BMP180;9774;52.034;5.342;2024-02-28T08:36:56;101954.00;;;11.60
19282;BMP180;9774;52.034;5.342;2024-02-28T08:39:25;101954.00;;;11.60
19282;BMP180;9774;52.034;5.342;2024-02-28T08:41:52;101967.00;;;11.70
19282;BMP180;9774;52.034;5.342;2024-02-28T08:44:20;101960.00;;;11.80
19282;BMP180;9774;52.034;5.342;2024-02-28T08:46:48;101957.00;;;11.80
19282;BMP180;9774;52.034;5.342;2024-02-28T08:49:16;101965.00;;;11.90
19282;BMP180;9774;52.034;5.342;2024-02-28T08:51:44;101961.00;;;11.90
19282;BMP180;9774;52.034;5.342;2024-02-28T08:54:11;101967.00;;;11.90
19282;BMP180;9774;52.034;5.342;2024-02-28T08:56:39;101966.00;;;12.00
19282;BMP180;9774;52.034;5.342;2024-02-28T08:59:06;101961.00;;;12.00
19282;BMP180;9774;52.034;5.342;2024-02-28T09:01:33;101956.00;;;12.00
19282;BMP180;9774;52.034;5.342;2024-02-28T09:04:01;101958.00;;;12.10
19282;BMP180;9774;52.034;5.342;2024-02-28T09:06:29;101956.00;;;12.20
19282;BMP180;9774;52.034;5.342;2024-02-28T09:08:57;101946.00;;;12.20
19282;BMP180;9774;52.034;5.342;2024-02-28T09:11:24;101954.00;;;12.20
19282;BMP180;9774;52.034;5.342;2024-02-28T09:13:53;101950.00;;;12.30
19282;BMP180;9774;52.034;5.342;2024-02-28T09:16:21;101944.00;;;12.30
19282;BMP180;9774;52.034;5.342;2024-02-28T09:18:49;101948.00;;;12.40
19282;BMP180;9774;52.034;5.342;2024-02-28T09:21:17;101943.00;;;12.50
19282;BMP180;9774;52.034;5.342;2024-02-28T09:23:45;101938.00;;;12.60
19282;BMP180;9774;52.034;5.342;2024-02-28T09:26:12;101947.00;;;12.60
19282;BMP180;9774;52.034;5.342;2024-02-28T09:28:40;101947.00;;;12.70
19282;BMP180;9774;52.034;5.342;2024-02-28T09:31:08;101945.00;;;12.80
19282;BMP180;9774;52.034;5.342;2024-02-28T09:33:37;101945.00;;;12.80
19282;BMP180;9774;52.034;5.342;2024-02-28T09:36:05;101949.00;;;12.90
19282;BMP180;9774;52.034;5.342;2024-02-28T09:38:32;101943.00;;;13.00
19282;BMP180;9774;52.034;5.342;2024-02-28T09:41:00;101945.00;;;13.00
19282;BMP180;9774;52.034;5.342;2024-02-28T09:43:30;101949.00;;;13.10
19282;BMP180;9774;52.034;5.342;2024-02-28T09:46:03;101950.00;;;13.10
19282;BMP180;9774;52.034;5.342;2024-02-28T09:48:31;101949.00;;;13.20
19282;BMP180;9774;52.034;5.342;2024-02-28T09:51:00;101954.00;;;13.20
19282;BMP180;9774;52.034;5.342;2024-02-28T09:53:27;101949.00;;;13.30
19282;BMP180;9774;52.034;5.342;2024-02-28T09:55:55;101948.00;;;13.40
19282;BMP180;9774;52.034;5.342;2024-02-28T09:58:23;101956.00;;;13.40
19282;BMP180;9774;52.034;5.342;2024-02-28T10:00:56;101960.00;;;13.50
19282;BMP180;9774;52.034;5.342;2024-02-28T10:03:27;101963.00;;;13.60
19282;BMP180;9774;52.034;5.342;2024-02-28T10:05:55;101971.00;;;13.60
19282;BMP180;9774;52.034;5.342;2024-02-28T10:08:23;101977.00;;;13.70
19282;BMP180;9774;52.034;5.342;2024-02-28T10:10:50;101976.00;;;13.80
19282;BMP180;9774;52.034;5.342;2024-02-28T10:13:20;101972.00;;;13.80
19282;BMP180;9774;52.034;5.342;2024-02-28T10:15:49;101971.00;;;13.90
19282;BMP180;9774;52.034;5.342;2024-02-28T10:18:16;101968.00;;;13.90
19282;BMP180;9774;52.034;5.342;2024-02-28T10:20:43;101973.00;;;14.00
19282;BMP180;9774;52.034;5.342;2024-02-28T10:23:12;101968.00;;;14.00
19282;BMP180;9774;52.034;5.342;2024-02-28T10:25:43;101986.00;;;14.00
19282;BMP180;9774;52.034;5.342;2024-02-28T10:28:11;101990.00;;;14.10
19282;BMP180;9774;52.034;5.342;2024-02-28T10:30:40;101974.00;;;14.10
19282;BMP180;9774;52.034;5.342;2024-02-28T10:33:11;101972.00;;;14.10
19282;BMP180;9774;52.034;5.342;2024-02-28T10:35:40;101978.00;;;14.20
19282;BMP180;9774;52.034;5.342;2024-02-28T10:38:11;101978.00;;;14.20
19282;BMP180;9774;52.034;5.342;2024-02-28T10:40:40;101970.00;;;14.20
19282;BMP180;9774;52.034;5.342;2024-02-28T10:43:09;101978.00;;;14.30
19282;BMP180;9774;52.034;5.342;2024-02-28T10:45:36;101970.00;;;14.30
19282;BMP180;9774;52.034;5.342;2024-02-28T10:48:06;101968.00;;;14.40
19282;BMP180;9774;52.034;5.342;2024-02-28T10:50:33;101960.00;;;14.50
19282;BMP180;9774;52.034;5.342;2024-02-28T10:53:03;101963.00;;;14.60
19282;BMP180;9774;52.034;5.342;2024-02-28T10:55:34;101967.00;;;14.60
19282;BMP180;9774;52.034;5.342;2024-02-28T10:58:07;101961.00;;;14.70
19282;BMP180;9774;52.034;5.342;2024-02-28T11:00:36;101953.00;;;14.80
19282;BMP180;9774;52.034;5.342;2024-02-28T11:03:05;101948.00;;;14.80
19282;BMP180;9774;52.034;5.342;2024-02-28T11:05:36;101950.00;;;14.90
19282;BMP180;9774;52.034;5.342;2024-02-28T11:08:07;101956.00;;;14.90
19282;BMP180;9774;52.034;5.342;2024-02-28T11:10:40;101948.00;;;14.90
19282;BMP180;9774;52.034;5.342;2024-02-28T11:13:08;101953.00;;;15.00
19282;BMP180;9774;52.034;5.342;2024-02-28T11:15:36;101950.00;;;15.10
19282;BMP180;9774;52.034;5.342;2024-02-28T11:18:11;101946.00;;;15.10
19282;BMP180;9774;52.034;5.342;2024-02-28T11:20:38;101954.00;;;15.20
19282;BMP180;9774;52.034;5.342;2024-02-28T11:23:06;101954.00;;;15.20
19282;BMP180;9774;52.034;5.342;2024-02-28T11:25:36;101949.00;;;15.20
19282;BMP180;9774;52.034;5.342;2024-02-28T11:28:04;101940.00;;;15.30
19282;BMP180;9774;52.034;5.342;2024-02-28T11:30:32;101939.00;;;15.40
19282;BMP180;9774;52.034;5.342;2024-02-28T11:33:00;101941.00;;;15.40
19282;BMP180;9774;52.034;5.342;2024-02-28T11:35:27;101938.00;;;15.50
19282;BMP180;9774;52.034;5.342;2024-02-28T11:37:55;101934.00;;;15.60
19282;BMP180;9774;52.034;5.342;2024-02-28T11:40:24;101940.00;;;15.60
19282;BMP180;9774;52.034;5.342;2024-02-28T11:42:54;101940.00;;;15.60
19282;BMP180;9774;52.034;5.342;2024-02-28T11:45:22;101938.00;;;15.70
19282;BMP180;9774;52.034;5.342;2024-02-28T11:47:49;101935.00;;;15.70
19282;BMP180;9774;52.034;5.342;2024-02-28T11:50:15;101927.00;;;15.80
19282;BMP180;9774;52.034;5.342;2024-02-28T11:52:44;101927.00;;;15.80
19282;BMP180;9774;52.034;5.342;2024-02-28T11:55:11;101921.00;;;15.80
19282;BMP180;9774;52.034;5.342;2024-02-28T11:57:38;101925.00;;;15.80
19282;BMP180;9774;52.034;5.342;2024-02-28T12:00:09;101927.00;;;15.80
19282;BMP180;9774;52.034;5.342;2024-02-28T12:02:38;101916.00;;;15.90
19282;BMP180;9774;52.034;5.342;2024-02-28T12:05:07;101925.00;;;15.90
19282;BMP180;9774;52.034;5.342;2024-02-28T12:07:36;101924.00;;;16.00
19282;BMP180;9774;52.034;5.342;2024-02-28T12:10:05;101916.00;;;16.00
19282;BMP180;9774;52.034;5.342;2024-02-28T12:12:34;101910.00;;;16.00
19282;BMP180;9774;52.034;5.342;2024-02-28T12:15:02;101907.00;;;16.10
19282;BMP180;9774;52.034;5.342;2024-02-28T12:17:32;101906.00;;;16.10
19282;BMP180;9774;52.034;5.342;2024-02-28T12:19:59;101910.00;;;16.10
19282;BMP180;9774;52.034;5.342;2024-02-28T12:22:27;101916.00;;;16.20
19282;BMP180;9774;52.034;5.342;2024-02-28T12:24:54;101913.00;;;16.30
19282;BMP180;9774;52.034;5.342;2024-02-28T12:27:21;101917.00;;;16.30
19282;BMP180;9774;52.034;5.342;2024-02-28T12:29:48;101923.00;;;16.30
19282;BMP180;9774;52.034;5.342;2024-02-28T12:32:15;101923.00;;;16.40
19282;BMP180;9774;52.034;5.342;2024-02-28T12:34:47;101918.00;;;16.40
19282;BMP180;9774;52.034;5.342;2024-02-28T12:37:14;101923.00;;;16.40
19282;BMP180;9774;52.034;5.342;2024-02-28T12:39:41;101914.00;;;16.40
19282;BMP180;9774;52.034;5.342;2024-02-28T12:42:08;101916.00;;;16.40
19282;BMP180;9774;52.034;5.342;2024-02-28T12:44:35;101916.00;;;16.40
19282;BMP180;9774;52.034;5.342;2024-02-28T12:47:04;101907.00;;;16.40
19282;BMP180;9774;52.034;5.342;2024-02-28T12:49:31;101904.00;;;16.40
19282;BMP180;9774;52.034;5.342;2024-02-28T12:51:59;101900.00;;;16.40
19282;BMP180;9774;52.034;5.342;2024-02-28T12:54:27;101903.00;;;16.40
19282;BMP180;9774;52.034;5.342;2024-02-28T12:56:54;101899.00;;;16.40
19282;BMP180;9774;52.034;5.342;2024-02-28T12:59:23;101905.00;;;16.40
19282;BMP180;9774;52.034;5.342;2024-02-28T13:01:51;101903.00;;;16.40
19282;BMP180;9774;52.034;5.342;2024-02-28T13:04:18;101900.00;;;16.40
19282;BMP180;9774;52.034;5.342;2024-02-28T13:06:45;101903.00;;;16.30
19282;BMP180;9774;52.034;5.342;2024-02-28T13:09:14;101900.00;;;16.30
19282;BMP180;9774;52.034;5.342;2024-02-28T13:11:41;101896.00;;;16.40
19282;BMP180;9774;52.034;5.342;2024-02-28T13:14:09;101902.00;;;16.40
19282;BMP180;9774;52.034;5.342;2024-02-28T13:16:36;101892.00;;;16.40
19282;BMP180;9774;52.034;5.342;2024-02-28T13:19:03;101889.00;;;16.50
19282;BMP180;9774;52.034;5.342;2024-02-28T13:21:31;101887.00;;;16.50
19282;BMP180;9774;52.034;5.342;2024-02-28T13:24:00;101891.00;;;16.60
19282;BMP180;9774;52.034;5.342;2024-02-28T13:26:29;101880.00;;;16.60
19282;BMP180;9774;52.034;5.342;2024-02-28T13:28:56;101876.00;;;16.60
19282;BMP180;9774;52.034;5.342;2024-02-28T13:31:24;101876.00;;;16.60
19282;BMP180;9774;52.034;5.342;2024-02-28T13:33:51;101880.00;;;16.70
19282;BMP180;9774;52.034;5.342;2024-02-28T13:36:18;101876.00;;;16.80
19282;BMP180;9774;52.034;5.342;2024-02-28T13:38:45;101858.00;;;16.80
19282;BMP180;9774;52.034;5.342;2024-02-28T13:41:12;101865.00;;;16.90
19282;BMP180;9774;52.034;5.342;2024-02-28T13:43:42;101857.00;;;17.00
19282;BMP180;9774;52.034;5.342;2024-02-28T13:46:09;101859.00;;;17.00
19282;BMP180;9774;52.034;5.342;2024-02-28T13:48:36;101858.00;;;17.10
19282;BMP180;9774;52.034;5.342;2024-02-28T13:51:04;101844.00;;;17.00
19282;BMP180;9774;52.034;5.342;2024-02-28T13:53:32;101838.00;;;17.10
19282;BMP180;9774;52.034;5.342;2024-02-28T13:56:00;101834.00;;;17.00
19282;BMP180;9774;52.034;5.342;2024-02-28T13:58:28;101834.00;;;17.00
19282;BMP180;9774;52.034;5.342;2024-02-28T14:00:56;101822.00;;;17.00
19282;BMP180;9774;52.034;5.342;2024-02-28T14:03:24;101828.00;;;17.00
19282;BMP180;9774;52.034;5.342;2024-02-28T14:05:52;101821.00;;;16.90
19282;BMP180;9774;52.034;5.342;2024-02-28T14:08:20;101815.00;;;16.80
19282;BMP180;9774;52.034;5.342;2024-02-28T14:10:47;101811.00;;;16.80
19282;BMP180;9774;52.034;5.342;2024-02-28T14:13:15;101822.00;;;16.80
19282;BMP180;9774;52.034;5.342;2024-02-28T14:15:44;101818.00;;;16.80
19282;BMP180;9774;52.034;5.342;2024-02-28T14:18:14;101823.00;;;16.70